sensor_id;sensor_type;location;lat;lon;timestamp;pressure;altitude;pressure_sealevel;temperature;humidity
4199;BME280;2113;50.946;14.610;2024-02-15T00:01:48;97411.84;;;5.86;87.68
4199;BME280;2113;50.946;14.610;2024-02-15T00:04:16;97404.78;;;5.78;87.55
4199;BME280;2113;50.946;14.610;2024-02-15T00:06:46;97402.34;;;5.85;87.92
4199;BME280;2113;50.946;14.610;2024-02-15T00:09:15;97398.88;;;5.85;87.89
4199;BME280;2113;50.946;14.610;2024-02-15T00:11:44;97397.41;;;5.82;87.81
4199;BME280;2113;50.946;14.610;2024-02-15T00:14:12;97388.94;;;5.88;88.01
4199;BME280;2113;50.946;14.610;2024-02-15T00:16:42;97392.19;;;5.82;87.52
4199;BME280;2113;50.946;14.610;2024-02-15T00:19:11;97395.41;;;5.76;87.80
4199;BME280;2113;50.946;14.610;2024-02-15T00:21:44;97393.31;;;5.71;88.35
4199;BME280;2113;50.946;14.610;2024-02-15T00:24:12;97388.25;;;5.78;88.29
4199;BME280;2113;50.946;14.610;2024-02-15T00:26:42;97388.34;;;5.68;88.36
4199;BME280;2113;50.946;14.610;2024-02-15T00:29:36;97386.09;;;5.73;88.81
4199;BME280;2113;50.946;14.610;2024-02-15T00:32:06;97383.03;;;5.78;88.82
4199;BME280;2113;50.946;14.610;2024-02-15T00:34:37;97375.94;;;5.70;88.65
4199;BME280;2113;50.946;14.610;2024-02-15T00:37:07;97383.59;;;5.64;89.57
4199;BME280;2113;50.946;14.610;2024-02-15T00:39:35;97374.03;;;5.81;88.22
4199;BME280;2113;50.946;14.610;2024-02-15T00:42:04;97380.72;;;5.83;88.64
4199;BME280;2113;50.946;14.610;2024-02-15T00:47:57;97377.47;;;5.81;88.46
4199;BME280;2113;50.946;14.610;2024-02-15T00:50:27;97383.31;;;5.75;89.50
4199;BME280;2113;50.946;14.610;2024-02-15T00:52:55;97384.03;;;5.85;88.90
4199;BME280;2113;50.946;14.610;2024-02-15T00:55:24;97375.69;;;5.90;88.41
4199;BME280;2113;50.946;14.610;2024-02-15T00:57:53;97386.78;;;5.84;88.84
4199;BME280;2113;50.946;14.610;2024-02-15T01:00:22;97382.88;;;5.88;89.16
4199;BME280;2113;50.946;14.610;2024-02-15T01:02:50;97377.94;;;5.85;88.87
4199;BME280;2113;50.946;14.610;2024-02-15T01:05:21;97379.91;;;5.83;89.56
4199;BME280;2113;50.946;14.610;2024-02-15T01:07:53;97381.06;;;5.80;89.08
4199;BME280;2113;50.946;14.610;2024-02-15T01:10:23;97386.47;;;5.87;88.84
4199;BME280;2113;50.946;14.610;2024-02-15T01:12:51;97391.19;;;5.83;89.17
4199;BME280;2113;50.946;14.610;2024-02-15T01:18:44;97377.78;;;5.78;89.91
4199;BME280;2113;50.946;14.610;2024-02-15T01:25:48;97375.94;;;5.70;90.75
4199;BME280;2113;50.946;14.610;2024-02-15T01:28:17;97374.31;;;5.77;90.70
4199;BME280;2113;50.946;14.610;2024-02-15T01:30:47;97368.31;;;5.85;90.49
4199;BME280;2113;50.946;14.610;2024-02-15T01:33:15;97366.56;;;5.94;90.83
4199;BME280;2113;50.946;14.610;2024-02-15T01:35:46;97363.28;;;5.92;90.07
4199;BME280;2113;50.946;14.610;2024-02-15T01:38:15;97367.16;;;5.88;90.81
4199;BME280;2113;50.946;14.610;2024-02-15T01:40:44;97357.91;;;5.93;89.96
4199;BME280;2113;50.946;14.610;2024-02-15T01:43:14;97367.06;;;5.97;89.95
4199;BME280;2113;50.946;14.610;2024-02-15T01:45:42;97368.38;;;6.01;89.75
4199;BME280;2113;50.946;14.610;2024-02-15T01:48:10;97359.41;;;6.12;89.62
4199;BME280;2113;50.946;14.610;2024-02-15T01:50:39;97361.19;;;6.12;88.88
4199;BME280;2113;50.946;14.610;2024-02-15T01:53:09;97364.16;;;6.09;88.82
4199;BME280;2113;50.946;14.610;2024-02-15T01:55:39;97370.66;;;5.96;89.43
4199;BME280;2113;50.946;14.610;2024-02-15T01:58:08;97369.34;;;5.92;90.08
4199;BME280;2113;50.946;14.610;2024-02-15T02:00:38;97364.25;;;5.91;90.06
4199;BME280;2113;50.946;14.610;2024-02-15T02:03:08;97368.63;;;5.82;89.71
4199;BME280;2113;50.946;14.610;2024-02-15T02:05:39;97370.88;;;5.77;90.11
4199;BME280;2113;50.946;14.610;2024-02-15T02:08:09;97361.56;;;5.74;90.93
4199;BME280;2113;50.946;14.610;2024-02-15T02:10:38;97361.91;;;5.71;90.17
4199;BME280;2113;50.946;14.610;2024-02-15T02:13:06;97359.16;;;5.89;90.10
4199;BME280;2113;50.946;14.610;2024-02-15T02:15:35;97355.53;;;5.82;89.89
4199;BME280;2113;50.946;14.610;2024-02-15T02:18:06;97361.13;;;5.87;90.44
4199;BME280;2113;50.946;14.610;2024-02-15T02:20:36;97359.84;;;5.91;89.68
4199;BME280;2113;50.946;14.610;2024-02-15T02:23:07;97359.41;;;5.70;89.98
4199;BME280;2113;50.946;14.610;2024-02-15T02:25:38;97360.28;;;5.78;90.89
4199;BME280;2113;50.946;14.610;2024-02-15T02:28:09;97358.66;;;5.86;90.67
4199;BME280;2113;50.946;14.610;2024-02-15T02:30:38;97359.47;;;5.86;90.76
4199;BME280;2113;50.946;14.610;2024-02-15T02:33:11;97353.97;;;6.05;89.90
4199;BME280;2113;50.946;14.610;2024-02-15T02:35:47;97363.97;;;6.02;89.81
4199;BME280;2113;50.946;14.610;2024-02-15T02:38:16;97354.66;;;6.08;89.32
4199;BME280;2113;50.946;14.610;2024-02-15T02:40:46;97355.78;;;6.05;88.91
4199;BME280;2113;50.946;14.610;2024-02-15T02:43:15;97358.25;;;6.07;89.25
4199;BME280;2113;50.946;14.610;2024-02-15T02:45:43;97354.31;;;6.11;89.04
4199;BME280;2113;50.946;14.610;2024-02-15T02:48:12;97354.66;;;5.99;89.49
4199;BME280;2113;50.946;14.610;2024-02-15T02:50:41;97354.84;;;6.14;89.22
4199;BME280;2113;50.946;14.610;2024-02-15T02:53:11;97359.22;;;6.05;89.20
4199;BME280;2113;50.946;14.610;2024-02-15T02:55:40;97350.06;;;6.10;89.18
4199;BME280;2113;50.946;14.610;2024-02-15T02:58:10;97353.66;;;6.09;89.32
4199;BME280;2113;50.946;14.610;2024-02-15T03:00:39;97358.28;;;6.15;88.99
4199;BME280;2113;50.946;14.610;2024-02-15T03:03:08;97356.13;;;6.10;88.69
4199;BME280;2113;50.946;14.610;2024-02-15T03:05:37;97365.13;;;6.16;88.14
4199;BME280;2113;50.946;14.610;2024-02-15T03:08:08;97359.91;;;6.16;88.67
4199;BME280;2113;50.946;14.610;2024-02-15T03:10:37;97356.13;;;6.10;89.46
4199;BME280;2113;50.946;14.610;2024-02-15T03:13:11;97354.94;;;5.96;89.29
4199;BME280;2113;50.946;14.610;2024-02-15T03:15:41;97361.88;;;6.14;90.05
4199;BME280;2113;50.946;14.610;2024-02-15T03:18:11;97363.50;;;6.15;89.51
4199;BME280;2113;50.946;14.610;2024-02-15T03:20:40;97351.88;;;6.17;89.64
4199;BME280;2113;50.946;14.610;2024-02-15T03:23:09;97354.50;;;6.09;90.70
4199;BME280;2113;50.946;14.610;2024-02-15T03:25:38;97360.53;;;6.10;90.35
4199;BME280;2113;50.946;14.610;2024-02-15T03:28:08;97362.69;;;6.14;91.09
4199;BME280;2113;50.946;14.610;2024-02-15T03:30:37;97362.53;;;6.16;91.22
4199;BME280;2113;50.946;14.610;2024-02-15T03:33:06;97357.28;;;6.08;91.00
4199;BME280;2113;50.946;14.610;2024-02-15T03:35:35;97354.78;;;6.06;91.43
4199;BME280;2113;50.946;14.610;2024-02-15T03:38:05;97359.41;;;6.12;91.44
4199;BME280;2113;50.946;14.610;2024-02-15T03:40:34;97359.41;;;6.12;91.77
4199;BME280;2113;50.946;14.610;2024-02-15T03:43:03;97360.38;;;6.03;92.05
4199;BME280;2113;50.946;14.610;2024-02-15T03:45:33;97361.81;;;5.97;92.92
4199;BME280;2113;50.946;14.610;2024-02-15T03:48:04;97360.69;;;6.00;93.06
4199;BME280;2113;50.946;14.610;2024-02-15T03:50:34;97364.28;;;5.99;93.09
4199;BME280;2113;50.946;14.610;2024-02-15T03:53:03;97353.97;;;5.97;93.20
4199;BME280;2113;50.946;14.610;2024-02-15T03:55:34;97355.13;;;6.03;93.20
4199;BME280;2113;50.946;14.610;2024-02-15T03:58:03;97362.16;;;6.02;93.77
4199;BME280;2113;50.946;14.610;2024-02-15T04:00:32;97354.66;;;5.99;94.19
4199;BME280;2113;50.946;14.610;2024-02-15T04:03:01;97350.53;;;5.97;94.55
4199;BME280;2113;50.946;14.610;2024-02-15T04:05:34;97352.97;;;5.98;94.42
4199;BME280;2113;50.946;14.610;2024-02-15T04:08:02;97354.66;;;6.08;94.21
4199;BME280;2113;50.946;14.610;2024-02-15T04:10:32;97351.19;;;5.99;94.28
4199;BME280;2113;50.946;14.610;2024-02-15T04:13:03;97356.59;;;5.97;94.42
4199;BME280;2113;50.946;14.610;2024-02-15T04:15:32;97352.31;;;5.96;94.40
4199;BME280;2113;50.946;14.610;2024-02-15T04:18:01;97352.63;;;5.85;94.95
4199;BME280;2113;50.946;14.610;2024-02-15T04:20:30;97345.94;;;5.91;95.17
4199;BME280;2113;50.946;14.610;2024-02-15T04:23:00;97343.44;;;5.89;95.16
4199;BME280;2113;50.946;14.610;2024-02-15T04:25:29;97354.25;;;5.86;95.65
4199;BME280;2113;50.946;14.610;2024-02-15T04:27:58;97346.94;;;5.98;95.48
4199;BME280;2113;50.946;14.610;2024-02-15T04:30:31;97348.25;;;5.94;95.27
4199;BME280;2113;50.946;14.610;2024-02-15T04:33:06;97339.41;;;5.95;95.09
4199;BME280;2113;50.946;14.610;2024-02-15T04:35:35;97343.19;;;5.92;95.46
4199;BME280;2113;50.946;14.610;2024-02-15T04:38:05;97347.44;;;6.01;95.86
4199;BME280;2113;50.946;14.610;2024-02-15T04:40:35;97344.19;;;5.99;95.04
4199;BME280;2113;50.946;14.610;2024-02-15T04:43:06;97346.47;;;6.02;95.64
4199;BME280;2113;50.946;14.610;2024-02-15T04:45:35;97356.47;;;6.07;95.25
4199;BME280;2113;50.946;14.610;2024-02-15T04:48:06;97361.53;;;6.17;94.59
4199;BME280;2113;50.946;14.610;2024-02-15T04:50:35;97358.91;;;6.09;95.61
4199;BME280;2113;50.946;14.610;2024-02-15T04:53:05;97360.72;;;6.08;94.88
4199;BME280;2113;50.946;14.610;2024-02-15T04:55:34;97358.94;;;6.25;94.81
4199;BME280;2113;50.946;14.610;2024-02-15T04:58:02;97361.88;;;6.30;94.60
4199;BME280;2113;50.946;14.610;2024-02-15T05:00:32;97365.50;;;6.21;94.43
4199;BME280;2113;50.946;14.610;2024-02-15T05:03:03;97356.81;;;6.28;94.37
4199;BME280;2113;50.946;14.610;2024-02-15T05:05:31;97357.28;;;6.24;94.95
4199;BME280;2113;50.946;14.610;2024-02-15T05:08:00;97361.88;;;6.30;94.72
4199;BME280;2113;50.946;14.610;2024-02-15T05:10:32;97367.78;;;6.40;93.93
4199;BME280;2113;50.946;14.610;2024-02-15T05:13:02;97359.75;;;6.25;93.48
4199;BME280;2113;50.946;14.610;2024-02-15T05:15:30;97365.31;;;6.22;93.74
4199;BME280;2113;50.946;14.610;2024-02-15T05:18:00;97368.59;;;6.24;93.88
4199;BME280;2113;50.946;14.610;2024-02-15T05:20:29;97362.38;;;6.33;93.58
4199;BME280;2113;50.946;14.610;2024-02-15T05:22:59;97367.44;;;6.27;93.68
4199;BME280;2113;50.946;14.610;2024-02-15T05:25:28;97368.75;;;6.39;93.18
4199;BME280;2113;50.946;14.610;2024-02-15T05:28:01;97364.84;;;6.35;93.69
4199;BME280;2113;50.946;14.610;2024-02-15T05:30:30;97362.88;;;6.29;93.52
4199;BME280;2113;50.946;14.610;2024-02-15T05:33:00;97366.13;;;6.23;93.90
4199;BME280;2113;50.946;14.610;2024-02-15T05:35:29;97364.97;;;6.25;93.67
4199;BME280;2113;50.946;14.610;2024-02-15T05:37:58;97366.78;;;6.17;94.01
4199;BME280;2113;50.946;14.610;2024-02-15T05:40:27;97363.00;;;6.19;94.92
4199;BME280;2113;50.946;14.610;2024-02-15T05:42:55;97366.13;;;6.15;94.53
4199;BME280;2113;50.946;14.610;2024-02-15T05:45:31;97371.38;;;6.23;93.97
4199;BME280;2113;50.946;14.610;2024-02-15T05:48:04;97370.22;;;6.25;94.38
4199;BME280;2113;50.946;14.610;2024-02-15T05:50:35;97368.94;;;6.21;93.75
4199;BME280;2113;50.946;14.610;2024-02-15T05:53:03;97380.53;;;6.19;94.50
4199;BME280;2113;50.946;14.610;2024-02-15T05:55:32;97372.66;;;6.27;93.98
4199;BME280;2113;50.946;14.610;2024-02-15T05:58:02;97370.72;;;6.29;94.73
4199;BME280;2113;50.946;14.610;2024-02-15T06:00:32;97378.91;;;6.34;94.29
4199;BME280;2113;50.946;14.610;2024-02-15T06:03:01;97373.53;;;6.27;93.50
4199;BME280;2113;50.946;14.610;2024-02-15T06:05:31;97385.13;;;6.25;94.93
4199;BME280;2113;50.946;14.610;2024-02-15T06:07:59;97384.81;;;6.28;94.71
4199;BME280;2113;50.946;14.610;2024-02-15T06:10:28;97385.13;;;6.25;94.22
4199;BME280;2113;50.946;14.610;2024-02-15T06:12:57;97388.72;;;6.24;94.98
4199;BME280;2113;50.946;14.610;2024-02-15T06:15:26;97380.22;;;6.22;95.04
4199;BME280;2113;50.946;14.610;2024-02-15T06:17:56;97389.22;;;6.27;95.44
4199;BME280;2113;50.946;14.610;2024-02-15T06:20:25;97391.00;;;6.27;95.06
4199;BME280;2113;50.946;14.610;2024-02-15T06:22:56;97389.22;;;6.27;95.00
4199;BME280;2113;50.946;14.610;2024-02-15T06:25:24;97395.44;;;6.26;94.78
4199;BME280;2113;50.946;14.610;2024-02-15T06:27:53;97394.28;;;6.21;94.97
4199;BME280;2113;50.946;14.610;2024-02-15T06:30:29;97391.34;;;6.32;94.55
4199;BME280;2113;50.946;14.610;2024-02-15T06:33:17;97385.28;;;6.31;94.52
4199;BME280;2113;50.946;14.610;2024-02-15T06:36:06;97395.78;;;6.31;94.26
4199;BME280;2113;50.946;14.610;2024-02-15T06:39:01;97395.47;;;6.35;94.42
4199;BME280;2113;50.946;14.610;2024-02-15T06:45:16;97411.66;;;6.38;94.14
4199;BME280;2113;50.946;14.610;2024-02-15T06:47:48;97409.03;;;6.30;94.09
4199;BME280;2113;50.946;14.610;2024-02-15T06:50:18;97411.66;;;6.38;94.54
4199;BME280;2113;50.946;14.610;2024-02-15T06:52:47;97410.66;;;6.31;94.14
4199;BME280;2113;50.946;14.610;2024-02-15T06:55:16;97411.31;;;6.33;93.66
4199;BME280;2113;50.946;14.610;2024-02-15T06:57:46;97416.72;;;6.31;93.42
4199;BME280;2113;50.946;14.610;2024-02-15T07:00:15;97420.19;;;6.40;93.85
4199;BME280;2113;50.946;14.610;2024-02-15T07:02:45;97428.53;;;6.44;92.89
4199;BME280;2113;50.946;14.610;2024-02-15T07:05:16;97427.56;;;6.45;93.60
4199;BME280;2113;50.946;14.610;2024-02-15T07:07:45;97415.28;;;6.45;92.97
4199;BME280;2113;50.946;14.610;2024-02-15T07:10:14;97424.66;;;6.56;92.76
4199;BME280;2113;50.946;14.610;2024-02-15T07:12:44;97415.94;;;6.47;93.33
4199;BME280;2113;50.946;14.610;2024-02-15T07:15:12;97422.16;;;6.46;93.35
4199;BME280;2113;50.946;14.610;2024-02-15T07:17:41;97427.91;;;6.58;92.58
4199;BME280;2113;50.946;14.610;2024-02-15T07:20:11;97416.63;;;6.57;92.69
4199;BME280;2113;50.946;14.610;2024-02-15T07:22:46;97422.84;;;6.73;92.90
4199;BME280;2113;50.946;14.610;2024-02-15T07:25:15;97417.28;;;6.84;91.98
4199;BME280;2113;50.946;14.610;2024-02-15T07:27:43;97421.84;;;6.82;92.14
4199;BME280;2113;50.946;14.610;2024-02-15T07:30:12;97421.84;;;6.82;91.61
4199;BME280;2113;50.946;14.610;2024-02-15T07:32:42;97424.66;;;6.72;92.26
4199;BME280;2113;50.946;14.610;2024-02-15T07:35:10;97415.63;;;6.83;92.11
4199;BME280;2113;50.946;14.610;2024-02-15T07:37:39;97418.75;;;6.95;91.86
4199;BME280;2113;50.946;14.610;2024-02-15T07:40:12;97422.69;;;6.99;92.12
4199;BME280;2113;50.946;14.610;2024-02-15T07:42:41;97410.38;;;7.15;91.86
4199;BME280;2113;50.946;14.610;2024-02-15T07:45:10;97419.22;;;7.14;90.98
4199;BME280;2113;50.946;14.610;2024-02-15T07:47:38;97418.06;;;7.17;90.81
4199;BME280;2113;50.946;14.610;2024-02-15T07:50:08;97425.09;;;7.33;90.34
4199;BME280;2113;50.946;14.610;2024-02-15T07:52:38;97425.28;;;7.15;90.78
4199;BME280;2113;50.946;14.610;2024-02-15T07:55:08;97413.63;;;7.18;91.82
4199;BME280;2113;50.946;14.610;2024-02-15T07:57:38;97419.50;;;7.44;90.91
4199;BME280;2113;50.946;14.610;2024-02-15T08:00:08;97422.09;;;7.52;90.09
4199;BME280;2113;50.946;14.610;2024-02-15T08:02:38;97423.06;;;7.59;89.85
4199;BME280;2113;50.946;14.610;2024-02-15T08:05:09;97430.28;;;7.57;89.82
4199;BME280;2113;50.946;14.610;2024-02-15T08:07:41;97416.69;;;7.62;88.65
4199;BME280;2113;50.946;14.610;2024-02-15T08:10:11;97423.41;;;7.56;89.27
4199;BME280;2113;50.946;14.610;2024-02-15T08:12:45;97424.44;;;7.47;89.52
4199;BME280;2113;50.946;14.610;2024-02-15T08:15:16;97411.66;;;7.36;89.65
4199;BME280;2113;50.946;14.610;2024-02-15T08:17:45;97422.63;;;7.39;89.95
4199;BME280;2113;50.946;14.610;2024-02-15T08:20:14;97420.31;;;7.44;89.93
4199;BME280;2113;50.946;14.610;2024-02-15T08:22:49;97410.97;;;7.42;89.81
4199;BME280;2113;50.946;14.610;2024-02-15T08:25:17;97416.72;;;7.37;89.61
4199;BME280;2113;50.946;14.610;2024-02-15T08:27:48;97416.19;;;7.58;89.31
4199;BME280;2113;50.946;14.610;2024-02-15T08:30:18;97419.13;;;7.63;89.09
4199;BME280;2113;50.946;14.610;2024-02-15T08:32:51;97414.94;;;7.85;88.49
4199;BME280;2113;50.946;14.610;2024-02-15T08:35:22;97409.34;;;7.88;88.10
4199;BME280;2113;50.946;14.610;2024-02-15T08:37:51;97411.41;;;8.01;88.11
4199;BME280;2113;50.946;14.610;2024-02-15T08:40:20;97402.59;;;8.56;86.16
4199;BME280;2113;50.946;14.610;2024-02-15T08:42:55;97392.59;;;8.74;84.83
4199;BME280;2113;50.946;14.610;2024-02-15T08:45:23;97410.41;;;8.87;83.83
4199;BME280;2113;50.946;14.610;2024-02-15T08:47:51;97406.38;;;8.76;83.73
4199;BME280;2113;50.946;14.610;2024-02-15T08:50:21;97415.34;;;8.67;84.84
4199;BME280;2113;50.946;14.610;2024-02-15T08:52:51;97416.84;;;8.39;85.66
4199;BME280;2113;50.946;14.610;2024-02-15T08:55:20;97413.03;;;8.41;85.49
4199;BME280;2113;50.946;14.610;2024-02-15T08:57:53;97417.19;;;8.27;86.70
4199;BME280;2113;50.946;14.610;2024-02-15T09:00:23;97417.97;;;8.05;87.76
4199;BME280;2113;50.946;14.610;2024-02-15T09:02:54;97421.97;;;7.93;88.39
4199;BME280;2113;50.946;14.610;2024-02-15T09:05:24;97424.00;;;8.14;87.78
4199;BME280;2113;50.946;14.610;2024-02-15T09:07:54;97426.34;;;8.01;88.34
4199;BME280;2113;50.946;14.610;2024-02-15T09:10:22;97425.69;;;8.07;88.28
4199;BME280;2113;50.946;14.610;2024-02-15T09:12:51;97424.72;;;7.99;88.42
4199;BME280;2113;50.946;14.610;2024-02-15T09:15:21;97433.47;;;7.92;88.99
4199;BME280;2113;50.946;14.610;2024-02-15T09:17:50;97426.75;;;7.89;89.66
4199;BME280;2113;50.946;14.610;2024-02-15T09:20:19;97426.56;;;7.91;89.99
4199;BME280;2113;50.946;14.610;2024-02-15T09:22:48;97426.19;;;8.02;89.41
4199;BME280;2113;50.946;14.610;2024-02-15T09:25:18;97423.22;;;8.05;89.31
4199;BME280;2113;50.946;14.610;2024-02-15T09:27:47;97424.38;;;8.42;88.91
4199;BME280;2113;50.946;14.610;2024-02-15T09:30:15;97426.72;;;8.83;86.87
4199;BME280;2113;50.946;14.610;2024-02-15T09:32:46;97429.84;;;9.01;86.12
4199;BME280;2113;50.946;14.610;2024-02-15T09:35:15;97426.59;;;8.99;86.06
4199;BME280;2113;50.946;14.610;2024-02-15T09:37:45;97427.34;;;9.22;85.61
4199;BME280;2113;50.946;14.610;2024-02-15T09:40:17;97431.56;;;9.31;85.23
4199;BME280;2113;50.946;14.610;2024-02-15T09:42:48;97420.38;;;9.29;84.64
4199;BME280;2113;50.946;14.610;2024-02-15T09:45:16;97420.25;;;9.08;84.71
4199;BME280;2113;50.946;14.610;2024-02-15T09:47:49;97421.47;;;8.83;85.35
4199;BME280;2113;50.946;14.610;2024-02-15T09:50:17;97416.53;;;8.79;86.48
4199;BME280;2113;50.946;14.610;2024-02-15T09:52:48;97420.50;;;8.98;85.83
4199;BME280;2113;50.946;14.610;2024-02-15T09:55:20;97422.09;;;9.22;85.40
4199;BME280;2113;50.946;14.610;2024-02-15T09:57:50;97419.84;;;9.19;84.92
4199;BME280;2113;50.946;14.610;2024-02-15T10:00:19;97417.91;;;9.13;85.19
4199;BME280;2113;50.946;14.610;2024-02-15T10:02:50;97419.53;;;9.14;86.25
4199;BME280;2113;50.946;14.610;2024-02-15T10:05:20;97422.19;;;9.14;85.69
4199;BME280;2113;50.946;14.610;2024-02-15T10:07:50;97431.47;;;9.02;85.85
4199;BME280;2113;50.946;14.610;2024-02-15T10:10:21;97431.84;;;8.99;86.33
4199;BME280;2113;50.946;14.610;2024-02-15T10:12:50;97432.06;;;9.12;86.08
4199;BME280;2113;50.946;14.610;2024-02-15T10:15:28;97428.91;;;8.94;85.47
4199;BME280;2113;50.946;14.610;2024-02-15T10:18:03;97432.81;;;8.83;86.13
4199;BME280;2113;50.946;14.610;2024-02-15T10:20:33;97424.66;;;8.93;86.03
4199;BME280;2113;50.946;14.610;2024-02-15T10:23:11;97423.09;;;8.84;86.07
4199;BME280;2113;50.946;14.610;2024-02-15T10:25:41;97421.22;;;8.69;86.62
4199;BME280;2113;50.946;14.610;2024-02-15T10:28:10;97423.16;;;8.75;86.73
4199;BME280;2113;50.946;14.610;2024-02-15T10:30:40;97420.97;;;9.02;85.96
4199;BME280;2113;50.946;14.610;2024-02-15T10:33:18;97427.34;;;9.22;84.25
4199;BME280;2113;50.946;14.610;2024-02-15T10:35:48;97419.59;;;9.44;83.71
4199;BME280;2113;50.946;14.610;2024-02-15T10:38:17;97417.72;;;9.52;83.52
4199;BME280;2113;50.946;14.610;2024-02-15T10:40:46;97414.41;;;9.65;83.64
4199;BME280;2113;50.946;14.610;2024-02-15T10:43:16;97412.69;;;9.43;84.10
4199;BME280;2113;50.946;14.610;2024-02-15T10:45:46;97412.25;;;9.39;84.22
4199;BME280;2113;50.946;14.610;2024-02-15T10:48:17;97406.06;;;9.61;83.47
4199;BME280;2113;50.946;14.610;2024-02-15T10:50:47;97405.88;;;9.78;83.71
4199;BME280;2113;50.946;14.610;2024-02-15T10:53:22;97401.72;;;9.83;82.71
4199;BME280;2113;50.946;14.610;2024-02-15T10:56:03;97395.00;;;9.81;81.97
4199;BME280;2113;50.946;14.610;2024-02-15T10:58:43;97391.47;;;9.74;82.72
4199;BME280;2113;50.946;14.610;2024-02-15T11:01:17;97386.03;;;10.11;82.59
4199;BME280;2113;50.946;14.610;2024-02-15T11:03:57;97392.16;;;9.82;81.85
4199;BME280;2113;50.946;14.610;2024-02-15T11:06:28;97403.16;;;9.86;82.04
4199;BME280;2113;50.946;14.610;2024-02-15T11:08:57;97392.16;;;9.82;82.43
4199;BME280;2113;50.946;14.610;2024-02-15T11:11:27;97393.16;;;9.96;82.40
4199;BME280;2113;50.946;14.610;2024-02-15T11:17:00;97392.84;;;10.06;82.16
4199;BME280;2113;50.946;14.610;2024-02-15T11:19:44;97396.97;;;10.08;82.68
4199;BME280;2113;50.946;14.610;2024-02-15T11:22:14;97383.59;;;10.10;81.72
4199;BME280;2113;50.946;14.610;2024-02-15T11:24:48;97385.97;;;9.90;82.09
4199;BME280;2113;50.946;14.610;2024-02-15T11:27:24;97386.28;;;9.80;82.51
4199;BME280;2113;50.946;14.610;2024-02-15T11:29:55;97377.56;;;10.16;81.65
4199;BME280;2113;50.946;14.610;2024-02-15T11:32:40;97382.41;;;9.98;81.37
4199;BME280;2113;50.946;14.610;2024-02-15T11:35:14;97381.88;;;10.02;81.68
4199;BME280;2113;50.946;14.610;2024-02-15T11:37:57;97372.41;;;10.23;80.83
4199;BME280;2113;50.946;14.610;2024-02-15T11:41:02;97369.28;;;10.19;82.33
4199;BME280;2113;50.946;14.610;2024-02-15T11:43:47;97369.22;;;10.70;80.00
4199;BME280;2113;50.946;14.610;2024-02-15T11:46:25;97382.66;;;10.32;79.72
4199;BME280;2113;50.946;14.610;2024-02-15T11:48:58;97374.69;;;10.11;82.15
4199;BME280;2113;50.946;14.610;2024-02-15T11:51:31;97371.50;;;10.15;81.10
4199;BME280;2113;50.946;14.610;2024-02-15T11:54:06;97375.56;;;10.18;81.17
4199;BME280;2113;50.946;14.610;2024-02-15T11:56:53;97381.88;;;10.02;81.02
4199;BME280;2113;50.946;14.610;2024-02-15T11:59:39;97370.13;;;10.05;81.12
4199;BME280;2113;50.946;14.610;2024-02-15T12:02:21;97371.41;;;10.09;81.50
4199;BME280;2113;50.946;14.610;2024-02-15T12:05:07;97364.06;;;10.40;79.40
4199;BME280;2113;50.946;14.610;2024-02-15T12:08:54;97360.53;;;10.33;80.25
4199;BME280;2113;50.946;14.610;2024-02-15T12:11:40;97358.50;;;10.50;79.69
4199;BME280;2113;50.946;14.610;2024-02-15T12:14:27;97355.66;;;10.52;79.88
4199;BME280;2113;50.946;14.610;2024-02-15T12:17:13;97359.66;;;10.48;78.67
4199;BME280;2113;50.946;14.610;2024-02-15T12:20:00;97353.59;;;10.47;79.15
4199;BME280;2113;50.946;14.610;2024-02-15T12:22:36;97363.50;;;10.66;79.01
4199;BME280;2113;50.946;14.610;2024-02-15T12:25:13;97355.84;;;10.71;77.78
4199;BME280;2113;50.946;14.610;2024-02-15T12:27:44;97359.41;;;10.42;78.26
4199;BME280;2113;50.946;14.610;2024-02-15T12:30:15;97361.44;;;10.40;79.82
4199;BME280;2113;50.946;14.610;2024-02-15T12:32:47;97354.97;;;10.64;78.71
4199;BME280;2113;50.946;14.610;2024-02-15T12:35:17;97361.31;;;10.49;78.86
4199;BME280;2113;50.946;14.610;2024-02-15T12:37:47;97364.06;;;10.40;79.50
4199;BME280;2113;50.946;14.610;2024-02-15T12:40:19;97359.38;;;10.57;79.72
4199;BME280;2113;50.946;14.610;2024-02-15T12:42:49;97355.78;;;10.43;78.81
4199;BME280;2113;50.946;14.610;2024-02-15T12:45:19;97365.44;;;10.22;79.95
4199;BME280;2113;50.946;14.610;2024-02-15T12:47:50;97354.25;;;9.98;80.84
4199;BME280;2113;50.946;14.610;2024-02-15T12:50:21;97364.81;;;10.34;80.33
4199;BME280;2113;50.946;14.610;2024-02-15T12:52:50;97357.91;;;10.33;79.52
4199;BME280;2113;50.946;14.610;2024-02-15T12:55:23;97355.41;;;10.25;79.99
4199;BME280;2113;50.946;14.610;2024-02-15T12:57:54;97355.84;;;10.14;80.99
4199;BME280;2113;50.946;14.610;2024-02-15T13:00:25;97350.75;;;10.12;80.16
4199;BME280;2113;50.946;14.610;2024-02-15T13:02:58;97348.72;;;10.08;80.45
4199;BME280;2113;50.946;14.610;2024-02-15T13:05:27;97342.78;;;10.06;81.10
4199;BME280;2113;50.946;14.610;2024-02-15T13:07:57;97346.66;;;9.88;81.55
4199;BME280;2113;50.946;14.610;2024-02-15T13:10:28;97340.88;;;10.00;81.63
4199;BME280;2113;50.946;14.610;2024-02-15T13:12:56;97339.78;;;10.09;81.06
4199;BME280;2113;50.946;14.610;2024-02-15T13:15:25;97339.75;;;9.87;81.88
4199;BME280;2113;50.946;14.610;2024-02-15T13:18:01;97346.50;;;9.60;82.67
4199;BME280;2113;50.946;14.610;2024-02-15T13:20:32;97344.13;;;9.51;83.12
4199;BME280;2113;50.946;14.610;2024-02-15T13:23:03;97332.78;;;9.65;83.52
4199;BME280;2113;50.946;14.610;2024-02-15T13:25:38;97344.31;;;9.49;83.72
4199;BME280;2113;50.946;14.610;2024-02-15T13:28:09;97335.25;;;9.37;84.33
4199;BME280;2113;50.946;14.610;2024-02-15T13:30:40;97339.69;;;9.36;84.57
4199;BME280;2113;50.946;14.610;2024-02-15T13:33:12;97342.06;;;9.31;84.34
4199;BME280;2113;50.946;14.610;2024-02-15T13:35:41;97339.69;;;9.36;84.73
4199;BME280;2113;50.946;14.610;2024-02-15T13:38:11;97332.59;;;9.22;84.81
4199;BME280;2113;50.946;14.610;2024-02-15T13:40:44;97345.16;;;9.20;84.87
4199;BME280;2113;50.946;14.610;2024-02-15T13:43:16;97352.41;;;9.33;84.21
4199;BME280;2113;50.946;14.610;2024-02-15T13:45:45;97356.78;;;9.41;83.91
4199;BME280;2113;50.946;14.610;2024-02-15T13:48:14;97357.84;;;9.61;83.00
4199;BME280;2113;50.946;14.610;2024-02-15T13:50:44;97353.66;;;9.81;81.90
4199;BME280;2113;50.946;14.610;2024-02-15T13:53:12;97349.13;;;9.75;81.74
4199;BME280;2113;50.946;14.610;2024-02-15T13:55:41;97349.84;;;9.69;82.26
4199;BME280;2113;50.946;14.610;2024-02-15T13:58:11;97345.97;;;9.50;83.00
4199;BME280;2113;50.946;14.610;2024-02-15T14:00:41;97348.34;;;9.30;83.41